| time (UTC) | temp C | wind direction | speed KPH | gust KPH | rain 1hr cm | rain 24hr cm | rain mn cm | humidity % | barometer mb |
| 20260906074002 | 23 | 24 | 19.3 | 19.3 | 0.00 | 0.00 | 0.00 | 56 | 1019.0 |
| 20260906073002 | 23 | 21 | 9.7 | 16.1 | 0.00 | 0.00 | 0.00 | 59 | 1020.0 |
| 20260906072001 | 22 | 351 | 14.5 | 19.3 | 0.00 | 0.00 | 0.00 | 60 | 1020.0 |
| 20260906071002 | 22 | 353 | 6.4 | 9.7 | 0.00 | 0.00 | 0.00 | 61 | 1019.0 |
| 20260906070002 | 22 | 349 | 14.5 | 19.3 | 0.00 | 0.00 | 0.00 | 63 | 1020.0 |
| 20260906065001 | 22 | 10 | 12.9 | 22.5 | 0.00 | 0.00 | 0.00 | 64 | 1019.0 |
| 20260906064002 | 22 | 29 | 11.3 | 17.7 | 0.00 | 0.00 | 0.00 | 65 | 1019.0 |
| 20260906063002 | 22 | 32 | 27.4 | 27.4 | 0.00 | 0.00 | 0.00 | 64 | 1019.0 |
| 20260906062001 | 22 | 26 | 16.1 | 19.3 | 0.00 | 0.00 | 0.00 | 67 | 1019.0 |
| 20260906061002 | 21 | 9 | 14.5 | 19.3 | 0.00 | 0.00 | 0.00 | 69 | 1019.0 |
| 20260906060001 | 22 | 27 | 12.9 | 22.5 | 0.00 | 0.00 | 0.00 | 70 | 1019.0 |
| 20260906055003 | 22 | 28 | 29.0 | 30.6 | 0.00 | 0.00 | 0.00 | 71 | 1019.0 |
| 20260906054002 | 22 | 32 | 9.7 | 16.1 | 0.00 | 0.00 | 0.00 | 71 | 1019.0 |
| 20260906053001 | 22 | 34 | 17.7 | 27.4 | 0.00 | 0.00 | 0.00 | 68 | 1019.0 |
| 20260906052002 | 21 | 35 | 17.7 | 24.1 | 0.00 | 0.00 | 0.00 | 69 | 1018.0 |
| 20260906051002 | 21 | 29 | 16.1 | 22.5 | 0.00 | 0.00 | 0.00 | 68 | 1018.0 |
| 20260906050001 | 21 | 31 | 22.5 | 25.7 | 0.00 | 0.00 | 0.00 | 68 | 1018.0 |
| 20260906045002 | 21 | 41 | 12.9 | 17.7 | 0.00 | 0.00 | 0.00 | 69 | 1018.0 |
| 20260906044002 | 21 | 24 | 8.0 | 16.1 | 0.00 | 0.00 | 0.00 | 72 | 1018.0 |
| 20260906043001 | 21 | 17 | 14.5 | 22.5 | 0.00 | 0.00 | 0.00 | 74 | 1018.0 |
| 20260906042002 | 21 | 21 | 11.3 | 17.7 | 0.00 | 0.00 | 0.00 | 75 | 1018.0 |
| 20260906041002 | 21 | 20 | 24.1 | 25.7 | 0.00 | 0.00 | 0.00 | 76 | 1017.0 |
| 20260906040001 | 21 | 24 | 14.5 | 19.3 | 0.00 | 0.00 | 0.00 | 77 | 1017.0 |
| 20260906035002 | 21 | 26 | 17.7 | 20.9 | 0.00 | 0.00 | 0.00 | 78 | 1017.0 |
| 20260906034002 | 21 | 19 | 17.7 | 19.3 | 0.00 | 0.00 | 0.00 | 78 | 1017.0 |
| 20260906033001 | 21 | 20 | 14.5 | 14.5 | 0.00 | 0.00 | 0.00 | 77 | 1017.0 |
| 20260906032002 | 21 | 23 | 12.9 | 16.1 | 0.00 | 0.00 | 0.00 | 77 | 1017.0 |
| 20260906031002 | 21 | 11 | 9.7 | 14.5 | 0.00 | 0.00 | 0.00 | 76 | 1017.0 |
| 20260906030001 | 21 | 33 | 14.5 | 24.1 | 0.00 | 0.00 | 0.00 | 75 | 1017.0 |
| 20260906025002 | 21 | 353 | 14.5 | 19.3 | 0.00 | 0.00 | 0.00 | 74 | 1016.0 |
| 20260906024001 | 21 | 17 | 22.5 | 27.4 | 0.00 | 0.00 | 0.00 | 74 | 1016.0 |
| 20260906023002 | 21 | 25 | 20.9 | 20.9 | 0.00 | 0.00 | 0.00 | 73 | 1016.0 |
| 20260906022002 | 21 | 31 | 14.5 | 24.1 | 0.00 | 0.00 | 0.00 | 73 | 1016.0 |
| 20260906021001 | 21 | 29 | 11.3 | 20.9 | 0.00 | 0.00 | 0.00 | 73 | 1016.0 |
| 20260906020002 | 21 | 36 | 19.3 | 24.1 | 0.00 | 0.00 | 0.00 | 74 | 1016.0 |
| 20260906015002 | 20 | 34 | 9.7 | 14.5 | 0.00 | 0.00 | 0.00 | 76 | 1016.0 |
| 20260906014001 | 19 | 33 | 6.4 | 6.4 | 0.00 | 0.00 | 0.00 | 74 | 1016.0 |
| 20260906013002 | 19 | 359 | 0.0 | 1.6 | 0.00 | 0.00 | 0.00 | 73 | 1016.0 |
| 20260906012002 | 18 | 352 | 1.6 | 3.2 | 0.00 | 0.00 | 0.00 | 73 | 1016.0 |
| 20260906011001 | 19 | 350 | 4.8 | 6.4 | 0.00 | 0.00 | 0.00 | 73 | 1016.0 |
| 20260906010002 | 19 | 326 | 3.2 | 6.4 | 0.00 | 0.00 | 0.00 | 73 | 1016.0 |
| 20260906005002 | 19 | 333 | 9.7 | 9.7 | 0.00 | 0.00 | 0.00 | 73 | 1016.0 |
| 20260906004001 | 19 | 347 | 11.3 | 12.9 | 0.00 | 0.00 | 0.00 | 75 | 1016.0 |
| 20260906003002 | 19 | 313 | 11.3 | 12.9 | 0.00 | 0.00 | 0.00 | 77 | 1016.0 |
| 20260906002001 | 19 | 328 | 8.0 | 9.7 | 0.00 | 0.00 | 0.00 | 79 | 1016.0 |
| 20260906001002 | 19 | 319 | 3.2 | 6.4 | 0.00 | 0.00 | 0.00 | 78 | 1015.0 |
| 20260906000001 | 19 | 338 | 6.4 | 6.4 | 0.00 | 0.00 | 0.00 | 80 | 1015.0 |
| 20260905235001 | 19 | 240 | 0.0 | 0.0 | 0.00 | 0.00 | 0.00 | 82 | 1015.0 |
| 20260905234002 | 19 | 201 | 0.0 | 3.2 | 0.00 | 0.00 | 0.00 | 81 | 1015.0 |
| 20260905233001 | 19 | 218 | 0.0 | 1.6 | 0.00 | 0.00 | 0.00 | 80 | 1015.0 |
| 20260905232001 | 19 | 254 | 1.6 | 3.2 | 0.00 | 0.00 | 0.00 | 81 | 1015.0 |
| 20260905231002 | 19 | 230 | 0.0 | 0.0 | 0.00 | 0.00 | 0.00 | 81 | 1015.0 |
| 20260905230001 | 19 | 186 | 0.0 | 1.6 | 0.00 | 0.00 | 0.00 | 82 | 1015.0 |
| 20260905225002 | 19 | 196 | 1.6 | 1.6 | 0.00 | 0.00 | 0.00 | 82 | 1015.0 |
| 20260905224002 | 20 | 194 | 3.2 | 4.8 | 0.00 | 0.00 | 0.00 | 81 | 1015.0 |
| 20260905223001 | 20 | 209 | 4.8 | 6.4 | 0.00 | 0.00 | 0.00 | 82 | 1015.0 |
| 20260905222002 | 20 | 202 | 3.2 | 4.8 | 0.00 | 0.00 | 0.00 | 82 | 1015.0 |
| 20260905221002 | 20 | 205 | 0.0 | 1.6 | 0.00 | 0.00 | 0.00 | 82 | 1016.0 |
| 20260905220001 | 20 | 226 | 0.0 | 1.6 | 0.00 | 0.00 | 0.00 | 82 | 1016.0 |
| 20260905215002 | 20 | 219 | 1.6 | 1.6 | 0.00 | 0.00 | 0.00 | 82 | 1016.0 |
| 20260905214002 | 20 | 206 | 1.6 | 3.2 | 0.00 | 0.00 | 0.00 | 82 | 1016.0 |
| 20260905213001 | 20 | 206 | 3.2 | 3.2 | 0.00 | 0.00 | 0.00 | 81 | 1016.0 |
| 20260905212002 | 20 | 209 | 3.2 | 4.8 | 0.00 | 0.00 | 0.00 | 80 | 1016.0 |
| 20260905211002 | 20 | 197 | 3.2 | 3.2 | 0.00 | 0.00 | 0.00 | 80 | 1016.0 |
| 20260905210002 | 20 | 198 | 3.2 | 3.2 | 0.00 | 0.00 | 0.00 | 79 | 1016.0 |
| 20260905205002 | 21 | 198 | 0.0 | 1.6 | 0.00 | 0.00 | 0.00 | 78 | 1016.0 |
| 20260905204002 | 21 | 200 | 3.2 | 4.8 | 0.00 | 0.00 | 0.00 | 78 | 1016.0 |
| 20260905203001 | 21 | 185 | 3.2 | 4.8 | 0.00 | 0.00 | 0.00 | 78 | 1016.0 |
| 20260905202002 | 21 | 191 | 3.2 | 3.2 | 0.00 | 0.00 | 0.00 | 77 | 1016.0 |
| 20260905201002 | 21 | 196 | 0.0 | 0.0 | 0.00 | 0.00 | 0.00 | 76 | 1016.0 |
| 20260905200001 | 21 | 224 | 1.6 | 1.6 | 0.00 | 0.00 | 0.00 | 76 | 1016.0 |
| 20260905195002 | 21 | 175 | 4.8 | 6.4 | 0.00 | 0.00 | 0.00 | 76 | 1016.0 |
| 20260905194002 | 22 | 175 | 4.8 | 4.8 | 0.00 | 0.00 | 0.00 | 75 | 1016.0 |
| 20260905193001 | 22 | 176 | 3.2 | 4.8 | 0.00 | 0.00 | 0.00 | 73 | 1016.0 |
| 20260905192002 | 22 | 183 | 3.2 | 4.8 | 0.00 | 0.00 | 0.00 | 72 | 1016.0 |
| 20260905191001 | 22 | 191 | 4.8 | 4.8 | 0.00 | 0.00 | 0.00 | 71 | 1016.0 |
| 20260905190001 | 22 | 191 | 3.2 | 4.8 | 0.00 | 0.00 | 0.00 | 70 | 1016.0 |
| 20260905185002 | 22 | 189 | 3.2 | 4.8 | 0.00 | 0.00 | 0.00 | 69 | 1016.0 |
| 20260905184001 | 23 | 192 | 4.8 | 4.8 | 0.00 | 0.00 | 0.00 | 68 | 1016.0 |
| 20260905183001 | 23 | 198 | 3.2 | 6.4 | 0.00 | 0.00 | 0.00 | 67 | 1016.0 |
| 20260905182002 | 23 | 192 | 3.2 | 4.8 | 0.00 | 0.00 | 0.00 | 66 | 1016.0 |
| 20260905181001 | 23 | 182 | 6.4 | 6.4 | 0.00 | 0.00 | 0.00 | 65 | 1016.0 |
| 20260905180001 | 23 | 178 | 3.2 | 4.8 | 0.00 | 0.00 | 0.00 | 64 | 1016.0 |
| 20260905175002 | 23 | 195 | 4.8 | 4.8 | 0.00 | 0.00 | 0.00 | 62 | 1016.0 |
| 20260905174001 | 24 | 182 | 3.2 | 3.2 | 0.00 | 0.00 | 0.00 | 61 | 1016.0 |
| 20260905173002 | 24 | 195 | 3.2 | 4.8 | 0.00 | 0.00 | 0.00 | 59 | 1016.0 |
| 20260905172002 | 25 | 201 | 6.4 | 6.4 | 0.00 | 0.00 | 0.00 | 57 | 1016.0 |
| 20260905171001 | 25 | 210 | 8.0 | 9.7 | 0.00 | 0.00 | 0.00 | 55 | 1016.0 |
| 20260905170002 | 25 | 208 | 4.8 | 9.7 | 0.00 | 0.00 | 0.00 | 54 | 1016.0 |
| 20260905165002 | 26 | 207 | 6.4 | 8.0 | 0.00 | 0.00 | 0.00 | 53 | 1016.0 |
| 20260905164001 | 26 | 207 | 4.8 | 6.4 | 0.00 | 0.00 | 0.00 | 52 | 1016.0 |
| 20260905163002 | 26 | 201 | 4.8 | 6.4 | 0.00 | 0.00 | 0.00 | 52 | 1016.0 |
| 20260905162002 | 27 | 202 | 8.0 | 8.0 | 0.00 | 0.00 | 0.00 | 50 | 1016.0 |
| 20260905161001 | 27 | 206 | 6.4 | 8.0 | 0.00 | 0.00 | 0.00 | 49 | 1015.0 |
| 20260905160002 | 27 | 195 | 9.7 | 11.3 | 0.00 | 0.00 | 0.00 | 49 | 1016.0 |
| 20260905155002 | 27 | 199 | 12.9 | 17.7 | 0.00 | 0.00 | 0.00 | 48 | 1016.0 |
| 20260905154001 | 27 | 178 | 14.5 | 17.7 | 0.00 | 0.00 | 0.00 | 56 | 1015.0 |
| 20260905153002 | 27 | 173 | 3.2 | 6.4 | 0.00 | 0.00 | 0.00 | 62 | 1015.0 |
| 20260905152002 | 27 | 181 | 9.7 | 11.3 | 0.00 | 0.00 | 0.00 | 61 | 1016.0 |
| 20260905151001 | 27 | 200 | 11.3 | 14.5 | 0.00 | 0.00 | 0.00 | 60 | 1015.0 |
| 20260905150002 | 27 | 201 | 8.0 | 11.3 | 0.00 | 0.00 | 0.00 | 57 | 1015.0 |
| 20260905145002 | 28 | 186 | 4.8 | 12.9 | 0.00 | 0.00 | 0.00 | 54 | 1015.0 |
| 20260905144001 | 27 | 177 | 16.1 | 17.7 | 0.00 | 0.00 | 0.00 | 57 | 1015.0 |
| 20260905143002 | 27 | 184 | 11.3 | 17.7 | 0.00 | 0.00 | 0.00 | 58 | 1015.0 |
| 20260905142002 | 27 | 175 | 12.9 | 17.7 | 0.00 | 0.00 | 0.00 | 57 | 1015.0 |
| 20260905141001 | 28 | 180 | 9.7 | 17.7 | 0.00 | 0.00 | 0.00 | 57 | 1015.0 |
| 20260905140002 | 28 | 180 | 12.9 | 19.3 | 0.00 | 0.00 | 0.00 | 55 | 1016.0 |
| 20260905135002 | 28 | 182 | 9.7 | 11.3 | 0.00 | 0.00 | 0.00 | 54 | 1015.0 |
| 20260905134001 | 27 | 169 | 11.3 | 20.9 | 0.00 | 0.00 | 0.00 | 56 | 1015.0 |
| 20260905133002 | 28 | 182 | 14.5 | 25.7 | 0.00 | 0.00 | 0.00 | 54 | 1015.0 |
| 20260905132002 | 28 | 179 | 12.9 | 16.1 | 0.00 | 0.00 | 0.00 | 56 | 1016.0 |
| 20260905131001 | 27 | 159 | 17.7 | 17.7 | 0.00 | 0.00 | 0.00 | 56 | 1016.0 |
| 20260905130002 | 28 | 179 | 12.9 | 17.7 | 0.00 | 0.00 | 0.00 | 56 | 1016.0 |
| 20260905125001 | 27 | 154 | 11.3 | 24.1 | 0.00 | 0.00 | 0.00 | 56 | 1016.0 |
| 20260905124001 | 27 | 168 | 14.5 | 19.3 | 0.00 | 0.00 | 0.00 | 59 | 1016.0 |
| 20260905123002 | 27 | 171 | 20.9 | 20.9 | 0.00 | 0.00 | 0.00 | 62 | 1016.0 |
| 20260905122002 | 28 | 172 | 11.3 | 20.9 | 0.00 | 0.00 | 0.00 | 56 | 1016.0 |
| 20260905121001 | 27 | 161 | 9.7 | 17.7 | 0.00 | 0.00 | 0.00 | 58 | 1016.0 |
| 20260905120002 | 28 | 178 | 12.9 | 20.9 | 0.00 | 0.00 | 0.00 | 56 | 1016.0 |
| 20260905115002 | 28 | 168 | 12.9 | 17.7 | 0.00 | 0.00 | 0.00 | 52 | 1017.0 |
| 20260905114001 | 28 | 160 | 19.3 | 20.9 | 0.00 | 0.00 | 0.00 | 52 | 1017.0 |
| 20260905113002 | 28 | 172 | 24.1 | 24.1 | 0.00 | 0.00 | 0.00 | 52 | 1017.0 |
| 20260905112002 | 28 | 171 | 16.1 | 22.5 | 0.00 | 0.00 | 0.00 | 54 | 1017.0 |
| 20260905111001 | 27 | 179 | 14.5 | 17.7 | 0.00 | 0.00 | 0.00 | 56 | 1017.0 |
| 20260905110002 | 28 | 162 | 12.9 | 24.1 | 0.00 | 0.00 | 0.00 | 53 | 1017.0 |
| 20260905105001 | 28 | 166 | 12.9 | 24.1 | 0.00 | 0.00 | 0.00 | 56 | 1017.0 |
| 20260905104001 | 28 | 169 | 22.5 | 27.4 | 0.00 | 0.00 | 0.00 | 53 | 1017.0 |
| 20260905103002 | 28 | 164 | 17.7 | 22.5 | 0.00 | 0.00 | 0.00 | 49 | 1017.0 |
| 20260905102001 | 28 | 164 | 20.9 | 22.5 | 0.00 | 0.00 | 0.00 | 50 | 1017.0 |
| 20260905101001 | 28 | 162 | 16.1 | 17.7 | 0.00 | 0.00 | 0.00 | 53 | 1017.0 |
| 20260905100002 | 28 | 174 | 17.7 | 17.7 | 0.00 | 0.00 | 0.00 | 51 | 1017.0 |
| 20260905095001 | 28 | 168 | 17.7 | 24.1 | 0.00 | 0.00 | 0.00 | 48 | 1018.0 |
| 20260905094001 | 28 | 169 | 11.3 | 20.9 | 0.00 | 0.00 | 0.00 | 50 | 1018.0 |
| 20260905093002 | 28 | 165 | 12.9 | 19.3 | 0.00 | 0.00 | 0.00 | 50 | 1018.0 |
| 20260905092001 | 29 | 166 | 17.7 | 19.3 | 0.00 | 0.00 | 0.00 | 45 | 1018.0 |
| 20260905091001 | 29 | 155 | 16.1 | 20.9 | 0.00 | 0.00 | 0.00 | 50 | 1018.0 |
| 20260905090002 | 28 | 166 | 9.7 | 9.7 | 0.00 | 0.00 | 0.00 | 46 | 1018.0 |
| 20260905085002 | 28 | 153 | 14.5 | 16.1 | 0.00 | 0.00 | 0.00 | 47 | 1018.0 |
| 20260905084001 | 28 | 160 | 4.8 | 6.4 | 0.00 | 0.00 | 0.00 | 49 | 1018.0 |
| 20260905083002 | 28 | 167 | 16.1 | 17.7 | 0.00 | 0.00 | 0.00 | 47 | 1018.0 |
| 20260905082001 | 28 | 165 | 9.7 | 11.3 | 0.00 | 0.00 | 0.00 | 53 | 1018.0 |
| 20260905081001 | 28 | 167 | 4.8 | 9.7 | 0.00 | 0.00 | 0.00 | 52 | 1018.0 |
| 20260905080002 | 28 | 127 | 9.7 | 17.7 | 0.00 | 0.00 | 0.00 | 51 | 1018.0 |
| 20260905075001 | 28 | 140 | 9.7 | 12.9 | 0.00 | 0.00 | 0.00 | 58 | 1018.0 |